Time;durP1;ratioP1;P1;durP2;ratioP2;P2;SDS_P1;SDS_P2;PMS_P1;PMS_P2;Temp;Humidity;BMP_temperature;BMP_pressure;BME280_temperature;BME280_humidity;BME280_pressure;Samples;Min_cycle;Max_cycle;Signal;HPM_P1;HPM_P2
2022/10/07 00:08:46;;;;;;;6.87;3.43;;;;;;;15.27;64.41;101178.84;31346348;28;20067;-76
2022/10/07 00:23:48;;;;;;;6.17;3.37;;;;;;;15.35;64.36;101169.28;31344800;28;20053;-76
2022/10/07 00:39:05;;;;;;;6.93;3.63;;;;;;;15.35;63.86;101163.81;31365929;28;20053;-77
2022/10/07 00:54:13;;;;;;;6.77;3.57;;;;;;;15.03;64.58;101166.47;31340207;28;20494;-77
2022/10/07 01:09:15;;;;;;;5.50;3.53;;;;;;;14.78;65.70;101168.94;31369931;28;20053;-76
2022/10/07 01:24:41;;;;;;;7.83;3.37;;;;;;;14.49;68.00;101177.69;31339870;28;20116;-76
2022/10/07 01:39:49;;;;;;;;;;;;;;;14.95;66.27;101173.28;31339081;28;20056;-77
2022/10/07 01:55:21;;;;;;;5.10;3.30;;;;;;;15.25;64.58;101164.06;31330702;28;19928;-76
2022/10/07 02:10:43;;;;;;;4.13;2.73;;;;;;;15.50;63.90;101174.44;31334189;28;20079;-77
2022/10/07 02:25:47;;;;;;;8.23;3.40;;;;;;;15.45;63.97;101172.97;31337954;28;20517;-76
2022/10/07 02:41:31;;;;;;;8.73;3.57;;;;;;;15.34;64.98;101177.94;31312948;28;20081;-77
2022/10/07 02:56:37;;;;;;;8.13;3.60;;;;;;;15.12;65.13;101194.00;31308585;28;20053;-77
2022/10/07 03:11:39;;;;;;;6.43;3.87;;;;;;;14.98;65.37;101194.31;31323658;28;20506;-75
2022/10/07 03:26:41;;;;;;;8.00;3.90;;;;;;;14.99;65.66;101207.56;31317260;28;20083;-77
2022/10/07 03:41:43;;;;;;;6.13;3.73;;;;;;;14.89;66.27;101207.75;31323024;28;20071;-76
2022/10/07 03:56:45;;;;;;;6.93;3.53;;;;;;;14.87;66.97;101205.47;31328831;28;20068;-76
2022/10/07 04:11:46;;;;;;;7.53;4.60;;;;;;;14.89;67.37;101211.28;31364578;28;20056;-76
2022/10/07 04:26:49;;;;;;;7.20;4.87;;;;;;;14.82;68.30;101219.63;31337944;28;20529;-77
2022/10/07 04:41:53;;;;;;;9.67;4.20;;;;;;;15.14;66.65;101213.50;31327641;28;20061;-76
2022/10/07 04:56:55;;;;;;;5.70;3.80;;;;;;;15.83;64.68;101225.28;31358542;28;20095;-77
2022/10/07 05:11:57;;;;;;;8.53;4.20;;;;;;;16.65;62.13;101236.97;31329339;28;20057;-79
2022/10/07 05:26:59;;;;;;;10.83;4.60;;;;;;;17.50;59.00;101242.00;31352381;28;20741;-77
2022/10/07 05:42:39;;;;;;;12.80;5.77;;;;;;;18.80;53.73;101251.94;31346249;28;20060;-81
2022/10/07 05:57:41;;;;;;;12.90;5.57;;;;;;;20.24;51.37;101260.59;31304649;28;20053;-78
2022/10/07 06:28:04;;;;;;;8.05;5.25;;;;;;;22.32;47.34;101291.03;31336708;28;20060;-81
2022/10/07 06:43:06;;;;;;;26.38;13.05;;;;;;;23.54;45.52;101291.06;31329294;28;20046;-79
2022/10/07 06:58:08;;;;;;;11.98;5.18;;;;;;;24.24;43.62;101310.50;31347028;28;20061;-78
2022/10/07 07:13:13;;;;;;;10.60;5.97;;;;;;;25.32;41.40;101298.88;31336898;28;20080;-79
2022/10/07 07:28:15;;;;;;;11.73;5.07;;;;;;;26.16;40.92;101300.25;31342368;28;20053;-81
2022/10/07 07:43:17;;;;;;;10.98;5.25;;;;;;;26.71;40.52;101304.53;31345787;28;20112;-78
2022/10/07 07:58:20;;;;;;;10.75;5.38;;;;;;;27.38;38.64;101282.38;31354464;28;20053;-85
2022/10/07 08:13:23;;;;;;;14.38;7.07;;;;;;;28.40;37.40;101301.22;31337635;28;20471;-77
2022/10/07 08:28:27;;;;;;;7.70;4.97;;;;;;;28.42;36.74;101303.50;31335307;28;20068;-77
2022/10/07 08:43:30;;;;;;;5.82;4.40;;;;;;;28.51;35.47;101308.81;31336189;28;20136;-78
2022/10/07 08:58:55;;;;;;;5.38;4.05;;;;;;;29.09;33.96;101281.53;31333382;28;20103;-76
2022/10/07 09:14:09;;;;;;;5.35;3.45;;;;;;;29.02;35.07;101286.94;31338625;28;20689;-77
2022/10/07 09:29:11;;;;;;;7.40;3.67;;;;;;;29.75;33.58;101279.47;31341461;28;20178;-77
2022/10/07 09:44:16;;;;;;;7.63;4.38;;;;;;;29.28;33.78;101281.66;31320463;28;20060;-77
2022/10/07 09:59:23;;;;;;;6.90;3.40;;;;;;;29.86;32.94;101273.00;31316299;28;20060;-76
2022/10/07 10:14:34;;;;;;;5.03;3.08;;;;;;;29.51;34.17;101260.66;31337798;28;20061;-78
2022/10/07 10:29:55;;;;;;;5.13;3.90;;;;;;;29.46;33.27;101241.88;31330253;28;20079;-76
2022/10/07 10:45:34;;;;;;;5.82;3.50;;;;;;;29.43;34.42;101226.13;31324776;28;20045;-76
2022/10/07 11:00:58;;;;;;;5.18;3.13;;;;;;;29.72;32.54;101218.22;31323849;28;20061;-78
2022/10/07 11:16:08;;;;;;;3.78;2.70;;;;;;;29.30;33.00;101220.34;31322887;28;20049;-75
2022/10/07 11:31:31;;;;;;;9.98;3.85;;;;;;;30.12;32.54;101200.44;31336299;28;20048;-76
2022/10/07 11:47:04;;;;;;;4.93;3.15;;;;;;;30.97;30.99;101214.75;31333604;28;20072;-86
2022/10/07 12:02:28;;;;;;;5.28;3.47;;;;;;;29.26;33.58;101211.53;31332116;28;20049;-81
2022/10/07 12:17:30;;;;;;;7.15;3.25;;;;;;;26.24;38.23;101203.13;31338050;28;20049;-82
2022/10/07 12:32:59;;;;;;;4.20;2.90;;;;;;;25.17;41.90;101189.88;31374943;28;20048;-82
2022/10/07 12:48:03;;;;;;;11.45;5.60;;;;;;;24.66;42.93;101185.09;31341681;28;20053;-78
2022/10/07 13:03:26;;;;;;;8.90;4.95;;;;;;;24.21;45.91;101172.75;31338879;28;20064;-77
2022/10/07 13:18:43;;;;;;;4.57;3.17;;;;;;;23.93;45.06;101181.50;31338466;28;20052;-77
2022/10/07 13:33:45;;;;;;;9.90;5.50;;;;;;;23.82;44.88;101181.38;31343132;28;20432;-77
2022/10/07 13:48:47;;;;;;;7.78;4.22;;;;;;;23.42;46.50;101182.78;31326852;28;20068;-78
2022/10/07 14:04:39;;;;;;;12.07;6.10;;;;;;;23.00;48.86;101163.00;31338842;28;20572;-76
2022/10/07 14:19:41;;;;;;;6.85;4.32;;;;;;;22.71;48.05;101147.88;31306629;28;20543;-76
2022/10/07 14:50:04;;;;;;;10.45;5.97;;;;;;;22.36;49.12;101166.38;31330656;28;20087;-79
2022/10/07 15:05:06;;;;;;;16.25;6.65;;;;;;;22.03;50.05;101167.22;31336913;28;20068;-77
2022/10/07 15:20:11;;;;;;;9.00;4.15;;;;;;;21.63;51.90;101164.09;31327443;28;20140;-75
2022/10/07 15:35:13;;;;;;;6.95;4.30;;;;;;;21.49;51.58;101173.84;31323946;28;20053;-77
2022/10/07 15:50:15;;;;;;;9.23;4.85;;;;;;;21.41;52.56;101178.16;31308826;28;20096;-76
2022/10/07 16:05:17;;;;;;;14.35;7.28;;;;;;;21.24;53.35;101179.78;31327754;28;20049;-77
2022/10/07 16:20:19;;;;;;;25.38;8.43;;;;;;;20.95;54.23;101178.31;31305320;28;20060;-76
2022/10/07 16:35:21;;;;;;;12.45;8.48;;;;;;;20.54;55.23;101168.72;31315335;28;20067;-81
2022/10/07 16:50:37;;;;;;;20.58;12.02;;;;;;;20.39;55.78;101179.59;31309352;28;20061;-78
2022/10/07 17:05:39;;;;;;;18.88;9.88;;;;;;;20.01;56.55;101182.00;31351027;28;20057;-77
2022/10/07 17:20:54;;;;;;;13.00;6.75;;;;;;;19.69;57.62;101188.81;31354997;28;20474;-76
2022/10/07 17:36:05;;;;;;;8.88;5.47;;;;;;;19.63;57.53;101187.88;31339582;28;20053;-79
2022/10/07 17:51:08;;;;;;;6.85;5.05;;;;;;;19.47;57.99;101190.84;31372134;28;20114;-80
2022/10/07 18:06:11;;;;;;;8.47;5.20;;;;;;;19.11;59.64;101189.47;31361245;28;20095;-82
2022/10/07 18:21:13;;;;;;;31.30;18.15;;;;;;;19.02;59.24;101186.66;31351023;28;20057;-80
2022/10/07 18:36:17;;;;;;;11.15;4.30;;;;;;;18.89;59.79;101194.25;31337939;28;20501;-83
2022/10/07 18:51:19;;;;;;;5.07;3.50;;;;;;;18.92;59.12;101204.34;31355182;28;20052;-78
2022/10/07 19:06:23;;;;;;;20.93;11.13;;;;;;;18.86;58.85;101217.91;31335791;28;20052;-77
2022/10/07 19:21:26;;;;;;;6.97;4.00;;;;;;;18.69;59.41;101222.81;31348450;28;20129;-77
2022/10/07 19:36:30;;;;;;;11.03;5.07;;;;;;;18.45;60.14;101227.19;31348103;28;20056;-79
2022/10/07 19:51:33;;;;;;;18.60;7.63;;;;;;;18.31;60.43;101236.69;31331460;28;20502;-80
2022/10/07 20:06:36;;;;;;;11.00;4.57;;;;;;;18.11;60.96;101235.41;31322703;28;20045;-77
2022/10/07 20:21:38;;;;;;;6.40;4.50;;;;;;;18.08;60.44;101241.81;31326133;28;20121;-77
2022/10/07 20:36:40;;;;;;;6.47;3.90;;;;;;;17.89;60.59;101246.34;31322983;28;20098;-78
2022/10/07 20:51:42;;;;;;;7.93;4.17;;;;;;;17.71;61.93;101246.91;31345157;28;20134;-77
2022/10/07 21:06:44;;;;;;;9.17;3.93;;;;;;;17.70;62.63;101235.16;31352136;28;20103;-78
2022/10/07 21:21:49;;;;;;;54.97;30.73;;;;;;;17.72;62.12;101226.44;31343806;28;20465;-78
2022/10/07 21:36:53;;;;;;;8.50;4.65;;;;;;;17.75;61.53;101220.06;31310212;28;20098;-76
2022/10/07 21:51:54;;;;;;;6.73;4.23;;;;;;;17.66;61.79;101223.50;31335001;28;20107;-77
2022/10/07 22:22:17;;;;;;;7.60;5.10;;;;;;;17.36;62.96;101221.25;31365758;28;20049;-77
2022/10/07 22:37:19;;;;;;;9.83;4.03;;;;;;;17.23;63.00;101215.75;31356041;28;20067;-76
2022/10/07 22:52:21;;;;;;;9.20;4.50;;;;;;;17.17;63.63;101220.25;31353362;28;20061;-76
2022/10/07 23:07:23;;;;;;;10.57;5.97;;;;;;;17.04;63.83;101214.72;31359578;28;20052;-76
2022/10/07 23:22:25;;;;;;;6.77;4.10;;;;;;;17.26;62.93;101201.16;31363573;28;20052;-76
2022/10/07 23:37:27;;;;;;;7.60;4.63;;;;;;;16.97;63.84;101189.50;31337951;28;20040;-76
2022/10/07 23:52:30;;;;;;;8.53;4.53;;;;;;;16.81;64.04;101184.06;31324346;28;20057;-77
